createdAt,value
2022-09-13T00:00:07.630Z,99.90
2022-09-13T00:02:34.627Z,99.90
2022-09-13T00:05:01.664Z,99.90
2022-09-13T00:07:28.675Z,99.90
2022-09-13T00:09:55.763Z,99.90
2022-09-13T00:12:26.665Z,99.90
2022-09-13T00:14:53.749Z,99.90
2022-09-13T00:17:23.109Z,99.90
2022-09-13T00:19:50.048Z,99.90
2022-09-13T00:22:17.203Z,99.90
2022-09-13T00:24:46.592Z,99.90
2022-09-13T00:27:13.807Z,99.90
2022-09-13T00:29:43.692Z,99.90
2022-09-13T00:32:10.871Z,99.90
2022-09-13T00:34:38.309Z,99.90
2022-09-13T00:37:09.157Z,99.90
2022-09-13T00:39:36.526Z,99.90
2022-09-13T00:42:03.788Z,99.90
2022-09-13T00:44:55.466Z,99.90
2022-09-13T00:47:34.983Z,99.90
2022-09-13T00:50:10.087Z,99.90
2022-09-13T00:52:39.011Z,99.90
2022-09-13T00:55:12.839Z,99.90
2022-09-13T00:57:41.265Z,99.90
2022-09-13T01:00:18.159Z,99.90
2022-09-13T01:02:50.804Z,99.90
2022-09-13T01:05:22.622Z,99.90
2022-09-13T01:07:50.307Z,99.90
2022-09-13T01:10:18.045Z,99.90
2022-09-13T01:12:55.108Z,99.90
2022-09-13T01:15:22.455Z,99.90
2022-09-13T01:17:50.743Z,99.90
2022-09-13T01:20:17.738Z,99.90
2022-09-13T01:22:53.521Z,99.90
2022-09-13T01:25:50.893Z,99.90
2022-09-13T01:28:55.697Z,99.90
2022-09-13T01:31:51.646Z,99.90
2022-09-13T01:34:27.998Z,99.90
2022-09-13T01:37:25.671Z,99.90
2022-09-13T01:40:10.070Z,99.90
2022-09-13T01:42:55.012Z,99.90
2022-09-13T01:45:35.131Z,99.90
2022-09-13T01:48:17.155Z,99.90
2022-09-13T01:50:50.835Z,99.90
2022-09-13T01:53:37.209Z,99.90
2022-09-13T01:56:31.023Z,99.90
2022-09-13T01:59:22.996Z,99.90
2022-09-13T02:02:02.747Z,99.90
2022-09-13T02:04:38.785Z,99.90
2022-09-13T02:07:16.933Z,99.90
2022-09-13T02:09:49.041Z,99.90
2022-09-13T02:12:27.887Z,99.90
2022-09-13T02:15:19.101Z,99.90
2022-09-13T02:18:09.646Z,99.90
2022-09-13T02:20:40.765Z,99.90
2022-09-13T02:23:30.286Z,99.90
2022-09-13T02:25:59.645Z,99.90
2022-09-13T02:28:36.712Z,99.90
2022-09-13T02:31:07.515Z,99.90
2022-09-13T02:33:40.593Z,99.90
2022-09-13T02:36:20.417Z,99.90
2022-09-13T02:38:59.871Z,99.90
2022-09-13T02:41:57.859Z,99.90
2022-09-13T02:44:34.428Z,99.90
2022-09-13T02:47:24.827Z,99.90
2022-09-13T02:50:22.713Z,99.90
2022-09-13T02:52:52.763Z,99.90
2022-09-13T02:55:46.514Z,99.90
2022-09-13T02:58:41.986Z,99.90
2022-09-13T03:01:09.112Z,99.90
2022-09-13T03:03:36.686Z,99.90
2022-09-13T03:06:03.830Z,99.90
2022-09-13T03:08:31.352Z,99.90
2022-09-13T03:11:25.423Z,99.90
2022-09-13T03:13:58.982Z,99.90
2022-09-13T03:16:59.635Z,99.90
2022-09-13T03:19:59.301Z,99.90
2022-09-13T03:22:43.720Z,99.90
2022-09-13T03:25:30.342Z,99.90
2022-09-13T03:28:14.307Z,99.90
2022-09-13T03:30:50.070Z,99.90
2022-09-13T03:33:31.014Z,99.90
2022-09-13T03:36:22.158Z,99.90
2022-09-13T03:39:14.872Z,99.90
2022-09-13T03:41:47.224Z,99.90
2022-09-13T03:44:19.861Z,99.90
2022-09-13T03:46:54.915Z,99.90
2022-09-13T03:49:24.579Z,99.90
2022-09-13T03:51:52.998Z,99.90
2022-09-13T03:54:24.593Z,99.90
2022-09-13T03:57:15.335Z,99.90
2022-09-13T03:59:50.925Z,99.90
2022-09-13T04:02:19.382Z,99.90
2022-09-13T04:04:47.065Z,99.90
2022-09-13T04:07:17.255Z,99.90
2022-09-13T04:09:44.326Z,99.90
2022-09-13T04:12:11.393Z,99.90
2022-09-13T04:14:38.480Z,99.90
2022-09-13T04:17:06.477Z,99.90
2022-09-13T04:19:33.861Z,99.90
2022-09-13T04:22:00.844Z,99.90
2022-09-13T04:24:29.115Z,99.90
2022-09-13T04:26:57.205Z,99.90
2022-09-13T04:29:29.076Z,99.90
2022-09-13T04:31:56.249Z,99.90
2022-09-13T04:34:23.721Z,99.90
2022-09-13T04:36:52.656Z,99.90
2022-09-13T04:39:20.937Z,99.90
2022-09-13T04:41:49.125Z,99.90
2022-09-13T04:44:17.831Z,99.90
2022-09-13T04:46:48.482Z,99.90
2022-09-13T04:49:17.138Z,99.90
2022-09-13T04:51:44.680Z,99.90
2022-09-13T04:54:15.474Z,99.90
2022-09-13T04:56:44.436Z,99.90
2022-09-13T04:59:12.100Z,99.90
2022-09-13T05:01:39.676Z,99.90
2022-09-13T05:04:07.621Z,99.90
2022-09-13T05:06:34.970Z,99.90
2022-09-13T05:09:02.869Z,99.90
2022-09-13T05:11:29.947Z,99.90
2022-09-13T05:13:59.074Z,99.90
2022-09-13T05:16:28.660Z,99.90
2022-09-13T05:18:56.005Z,99.90
2022-09-13T05:21:26.525Z,99.90
2022-09-13T05:23:55.275Z,99.90
2022-09-13T05:26:24.389Z,99.90
2022-09-13T05:28:51.568Z,99.90
2022-09-13T05:31:21.781Z,99.90
2022-09-13T05:33:54.422Z,99.90
2022-09-13T05:36:21.543Z,99.90
2022-09-13T05:38:49.158Z,99.90
2022-09-13T05:41:16.259Z,99.90
2022-09-13T05:43:43.430Z,99.90
2022-09-13T05:46:16.677Z,99.90
2022-09-13T05:48:44.431Z,99.90
2022-09-13T05:51:14.516Z,99.90
2022-09-13T05:53:44.109Z,99.90
2022-09-13T05:56:17.713Z,99.90
2022-09-13T05:58:48.635Z,99.90
2022-09-13T06:01:18.411Z,99.90
2022-09-13T06:03:48.840Z,99.90
2022-09-13T06:06:16.806Z,99.90
2022-09-13T06:08:44.676Z,99.90
2022-09-13T06:11:13.582Z,99.90
2022-09-13T06:13:41.429Z,99.90
2022-09-13T06:16:10.689Z,99.90
2022-09-13T06:18:38.038Z,99.90
2022-09-13T06:21:22.933Z,99.90
2022-09-13T06:23:57.235Z,99.90
2022-09-13T06:26:26.926Z,99.90
2022-09-13T06:28:56.083Z,99.90
2022-09-13T06:31:25.184Z,99.90
2022-09-13T06:34:00.737Z,99.90
2022-09-13T06:36:27.792Z,99.90
2022-09-13T06:38:54.863Z,99.90
2022-09-13T06:41:25.288Z,99.90
2022-09-13T06:43:57.931Z,99.90
2022-09-13T06:46:26.832Z,99.90
2022-09-13T06:48:54.727Z,99.90
2022-09-13T06:51:24.055Z,99.90
2022-09-13T06:53:52.947Z,99.90
2022-09-13T06:56:22.318Z,99.90
2022-09-13T06:58:51.691Z,99.90
2022-09-13T07:01:21.018Z,99.90
2022-09-13T07:03:50.908Z,99.90
2022-09-13T07:06:23.041Z,99.90
2022-09-13T07:08:52.456Z,99.90
2022-09-13T07:11:21.934Z,99.90
2022-09-13T07:13:55.790Z,99.90
2022-09-13T07:16:27.086Z,99.90
2022-09-13T07:18:57.182Z,99.90
2022-09-13T07:21:25.168Z,99.90
2022-09-13T07:23:53.929Z,99.90
2022-09-13T07:26:21.300Z,99.90
2022-09-13T07:28:52.554Z,99.90
2022-09-13T07:31:25.213Z,99.90
2022-09-13T07:33:58.036Z,99.90
2022-09-13T07:36:25.897Z,99.90
2022-09-13T07:38:54.625Z,99.90
2022-09-13T07:41:23.423Z,99.90
2022-09-13T07:43:53.116Z,99.90
2022-09-13T07:46:27.864Z,99.90
2022-09-13T07:48:56.605Z,99.90
2022-09-13T07:51:26.682Z,99.90
2022-09-13T07:53:57.702Z,99.90
2022-09-13T07:56:30.450Z,99.90
2022-09-13T07:59:00.987Z,99.90
2022-09-13T08:01:35.251Z,99.90
2022-09-13T08:04:08.215Z,99.90
2022-09-13T08:06:38.963Z,99.90
2022-09-13T08:09:07.795Z,99.90
2022-09-13T08:11:36.535Z,99.90
2022-09-13T08:14:05.828Z,99.90
2022-09-13T08:16:33.634Z,99.90
2022-09-13T08:19:02.986Z,99.90
2022-09-13T08:21:48.579Z,99.90
2022-09-13T08:24:21.565Z,99.90
2022-09-13T08:26:49.551Z,99.90
2022-09-13T08:29:17.493Z,99.90
2022-09-13T08:31:45.272Z,99.90
2022-09-13T08:34:15.239Z,99.90
2022-09-13T08:36:43.455Z,99.90
2022-09-13T08:39:13.852Z,99.90
2022-09-13T08:41:42.441Z,99.90
2022-09-13T08:44:12.458Z,99.90
2022-09-13T08:46:47.186Z,99.90
2022-09-13T08:49:20.105Z,99.90
2022-09-13T08:51:50.488Z,99.90
2022-09-13T08:54:18.800Z,99.90
2022-09-13T08:57:06.189Z,99.00
2022-09-13T09:00:24.755Z,99.50
2022-09-13T09:03:12.825Z,98.50
2022-09-13T09:05:49.162Z,98.70
2022-09-13T09:08:25.699Z,98.30
2022-09-13T09:10:55.671Z,98.60
2022-09-13T09:13:40.564Z,99.10
2022-09-13T09:16:33.898Z,99.60
2022-09-13T09:19:14.671Z,99.50
2022-09-13T09:21:45.054Z,99.70
2022-09-13T09:24:25.361Z,99.90
2022-09-13T09:26:57.884Z,99.90
2022-09-13T09:29:29.171Z,99.90
2022-09-13T09:32:18.870Z,99.90
2022-09-13T09:35:21.681Z,99.90
2022-09-13T09:38:19.955Z,99.90
2022-09-13T09:40:47.169Z,99.90
2022-09-13T09:43:30.023Z,99.90
2022-09-13T09:45:58.627Z,99.90
2022-09-13T09:48:31.870Z,99.40
2022-09-13T09:50:59.601Z,98.90
2022-09-13T09:53:36.995Z,97.20
2022-09-13T09:56:20.294Z,96.10
2022-09-13T09:58:47.636Z,96.30
2022-09-13T10:01:32.508Z,96.20
2022-09-13T10:04:02.675Z,96.60
2022-09-13T10:06:31.316Z,96.40
2022-09-13T10:09:08.020Z,97.00
2022-09-13T10:11:54.112Z,97.10
2022-09-13T10:14:37.303Z,96.70
2022-09-13T10:17:10.270Z,97.60
2022-09-13T10:19:39.083Z,98.30
2022-09-13T10:22:13.706Z,98.10
2022-09-13T10:24:41.133Z,98.90
2022-09-13T10:27:26.281Z,98.80
2022-09-13T10:29:59.840Z,98.00
2022-09-13T10:32:29.508Z,98.30
2022-09-13T10:35:19.558Z,97.60
2022-09-13T10:37:46.921Z,97.00
2022-09-13T10:40:20.584Z,97.40
2022-09-13T10:42:57.562Z,95.60
2022-09-13T10:45:30.769Z,96.50
2022-09-13T10:48:19.356Z,96.70
2022-09-13T10:51:01.681Z,96.60
2022-09-13T10:53:42.965Z,97.10
2022-09-13T10:56:26.402Z,96.00
2022-09-13T10:59:19.802Z,97.50
2022-09-13T11:02:22.841Z,97.10
2022-09-13T11:05:12.803Z,97.70
2022-09-13T11:08:01.948Z,95.00
2022-09-13T11:10:29.186Z,93.50
2022-09-13T11:13:11.983Z,93.40
2022-09-13T11:15:44.252Z,91.90
2022-09-13T11:18:42.811Z,91.70
2022-09-13T11:21:49.665Z,91.40
2022-09-13T11:24:32.012Z,88.20
2022-09-13T11:27:17.798Z,86.50
2022-09-13T11:30:12.052Z,86.40
2022-09-13T11:32:50.316Z,87.00
2022-09-13T11:35:29.581Z,83.70
2022-09-13T11:38:15.321Z,82.80
2022-09-13T11:41:01.902Z,82.00
2022-09-13T11:43:48.650Z,79.60
2022-09-13T11:46:31.966Z,79.30
2022-09-13T11:49:10.920Z,81.20
2022-09-13T11:52:08.801Z,82.20
2022-09-13T11:55:00.107Z,84.00
2022-09-13T11:57:35.972Z,81.40
2022-09-13T12:00:15.880Z,77.90
2022-09-13T12:02:52.248Z,80.40
2022-09-13T12:05:25.484Z,82.40
2022-09-13T12:08:03.521Z,81.00
2022-09-13T12:11:05.513Z,79.10
2022-09-13T12:13:46.599Z,78.90
2022-09-13T12:16:20.174Z,78.90
2022-09-13T12:18:51.073Z,76.80
2022-09-13T12:21:24.170Z,78.50
2022-09-13T12:24:22.134Z,78.50
2022-09-13T12:27:10.750Z,76.00
2022-09-13T12:30:02.213Z,77.10
2022-09-13T12:32:29.447Z,74.70
2022-09-13T12:35:18.417Z,74.40
2022-09-13T12:38:00.300Z,72.60
2022-09-13T12:40:51.632Z,74.00
2022-09-13T12:43:55.412Z,72.50
2022-09-13T12:46:44.002Z,74.50
2022-09-13T12:49:33.783Z,79.30
2022-09-13T12:52:23.674Z,84.00
2022-09-13T12:55:29.426Z,84.80
2022-09-13T12:58:29.458Z,86.30
2022-09-13T13:01:20.089Z,88.60
2022-09-13T13:04:01.344Z,87.80
2022-09-13T13:06:37.295Z,88.20
2022-09-13T13:09:29.034Z,85.50
2022-09-13T13:11:58.588Z,85.00
2022-09-13T13:14:55.389Z,85.00
2022-09-13T13:17:45.251Z,83.50
2022-09-13T13:20:41.203Z,82.60
2022-09-13T13:23:33.049Z,83.40
2022-09-13T13:26:10.271Z,86.40
2022-09-13T13:28:47.846Z,86.80
2022-09-13T13:31:30.421Z,88.30
2022-09-13T13:34:06.048Z,89.60
2022-09-13T13:36:45.589Z,90.20
2022-09-13T13:39:25.074Z,92.00
2022-09-13T13:41:59.112Z,93.50
2022-09-13T13:44:26.099Z,93.30
2022-09-13T13:47:09.927Z,94.00
2022-09-13T13:49:40.448Z,93.80
2022-09-13T13:52:15.981Z,94.10
2022-09-13T13:54:45.542Z,93.80
2022-09-13T13:57:34.588Z,95.10
2022-09-13T14:00:23.627Z,94.80
2022-09-13T14:02:50.602Z,94.20
2022-09-13T14:05:50.210Z,95.00
2022-09-13T14:08:23.806Z,96.40
2022-09-13T14:10:55.960Z,96.80
2022-09-13T14:13:50.757Z,97.40
2022-09-13T14:16:52.145Z,98.60
2022-09-13T14:19:38.630Z,97.50
2022-09-13T14:22:07.093Z,96.50
2022-09-13T14:24:39.314Z,98.50
2022-09-13T14:27:09.505Z,99.30
2022-09-13T14:29:36.923Z,99.90
2022-09-13T14:32:08.597Z,99.90
2022-09-13T14:34:38.831Z,99.90
2022-09-13T14:37:19.648Z,99.90
2022-09-13T14:40:02.125Z,99.90
2022-09-13T14:42:43.551Z,99.90
2022-09-13T14:45:19.107Z,99.90
2022-09-13T14:47:48.923Z,99.90
2022-09-13T14:50:24.004Z,99.90
2022-09-13T14:53:06.550Z,99.90
2022-09-13T14:55:50.035Z,99.90
2022-09-13T14:58:29.704Z,99.90
2022-09-13T15:01:02.465Z,99.90
2022-09-13T15:03:30.072Z,99.90
2022-09-13T15:06:00.168Z,99.90
2022-09-13T15:08:32.969Z,99.90
2022-09-13T15:11:02.181Z,99.90
2022-09-13T15:13:29.745Z,99.90
2022-09-13T15:15:56.816Z,99.90
2022-09-13T15:18:36.464Z,99.90
2022-09-13T15:21:06.642Z,99.90
2022-09-13T15:23:43.312Z,99.90
2022-09-13T15:26:31.693Z,99.90
2022-09-13T15:29:04.287Z,99.90
2022-09-13T15:31:36.116Z,99.90
2022-09-13T15:34:19.559Z,99.90
2022-09-13T15:37:06.365Z,99.90
2022-09-13T15:40:16.685Z,99.90
2022-09-13T15:42:51.559Z,99.90
2022-09-13T15:45:20.663Z,99.90
2022-09-13T15:47:54.009Z,99.90
2022-09-13T15:50:31.831Z,99.90
2022-09-13T15:53:00.617Z,99.90
2022-09-13T15:55:29.486Z,99.90
2022-09-13T15:57:57.618Z,99.90
2022-09-13T16:00:28.802Z,99.90
2022-09-13T16:02:56.320Z,99.90
2022-09-13T16:05:24.046Z,99.90
2022-09-13T16:07:52.036Z,99.90
2022-09-13T16:10:22.387Z,99.90
2022-09-13T16:12:50.447Z,99.90
2022-09-13T16:15:18.522Z,99.90
2022-09-13T16:17:55.150Z,99.90
2022-09-13T16:20:22.651Z,99.90
2022-09-13T16:22:50.263Z,99.90
2022-09-13T16:25:18.205Z,99.90
2022-09-13T16:27:46.295Z,99.90
2022-09-13T16:30:15.567Z,99.90
2022-09-13T16:32:43.174Z,99.90
2022-09-13T16:35:12.455Z,99.90
2022-09-13T16:37:41.532Z,99.90
2022-09-13T16:40:10.676Z,99.90
2022-09-13T16:42:38.296Z,99.90
2022-09-13T16:45:06.396Z,99.90
2022-09-13T16:47:33.732Z,99.90
2022-09-13T16:50:01.403Z,99.90
2022-09-13T16:52:29.399Z,99.90
2022-09-13T16:54:57.782Z,99.90
2022-09-13T16:57:26.808Z,99.90
2022-09-13T16:59:57.155Z,99.90
2022-09-13T17:02:25.550Z,99.90
2022-09-13T17:04:53.575Z,99.90
2022-09-13T17:07:20.830Z,99.90
2022-09-13T17:09:48.335Z,99.90
2022-09-13T17:12:16.378Z,99.90
2022-09-13T17:14:45.820Z,99.90
2022-09-13T17:17:15.896Z,99.90
2022-09-13T17:19:44.734Z,99.90
2022-09-13T17:22:12.600Z,99.90
2022-09-13T17:24:42.147Z,99.90
2022-09-13T17:27:09.446Z,99.90
2022-09-13T17:29:37.510Z,99.90
2022-09-13T17:32:06.142Z,99.90
2022-09-13T17:34:37.133Z,99.90
2022-09-13T17:37:06.067Z,99.90
2022-09-13T17:39:36.316Z,99.90
2022-09-13T17:42:04.249Z,99.90
2022-09-13T17:44:31.294Z,99.90
2022-09-13T17:46:58.551Z,99.90
2022-09-13T17:49:26.215Z,99.90
2022-09-13T17:51:54.785Z,99.90
2022-09-13T17:54:23.309Z,99.90
2022-09-13T17:56:51.572Z,99.90
2022-09-13T17:59:21.175Z,99.90
2022-09-13T18:01:51.234Z,99.90
2022-09-13T18:04:20.589Z,99.90
2022-09-13T18:06:50.663Z,99.90
2022-09-13T18:09:17.604Z,99.90
2022-09-13T18:11:44.998Z,99.90
2022-09-13T18:14:14.298Z,99.90
2022-09-13T18:16:42.499Z,99.90
2022-09-13T18:19:10.298Z,99.90
2022-09-13T18:21:37.427Z,99.90
2022-09-13T18:24:06.921Z,99.90
2022-09-13T18:26:34.786Z,99.90
2022-09-13T18:29:05.712Z,99.90
2022-09-13T18:31:34.742Z,99.90
2022-09-13T18:34:05.200Z,99.90
2022-09-13T18:36:33.816Z,99.90
2022-09-13T18:39:03.887Z,99.90
2022-09-13T18:41:34.316Z,99.90
2022-09-13T18:44:01.540Z,99.90
2022-09-13T18:46:32.057Z,99.90
2022-09-13T18:49:00.834Z,99.90
2022-09-13T18:51:36.597Z,99.90
2022-09-13T18:54:05.915Z,99.90
2022-09-13T18:56:34.020Z,99.90
2022-09-13T18:59:03.613Z,99.90
2022-09-13T19:01:33.393Z,99.90
2022-09-13T19:04:06.933Z,99.90
2022-09-13T19:06:37.171Z,99.90
2022-09-13T19:09:06.324Z,99.90
2022-09-13T19:11:46.326Z,99.90
2022-09-13T19:14:16.872Z,99.90
2022-09-13T19:16:44.919Z,99.90
2022-09-13T19:19:12.891Z,99.90
2022-09-13T19:21:41.007Z,99.90
2022-09-13T19:24:18.112Z,99.90
2022-09-13T19:26:49.016Z,99.90
2022-09-13T19:29:19.391Z,99.90
2022-09-13T19:31:49.017Z,99.90
2022-09-13T19:34:18.146Z,99.90
2022-09-13T19:36:45.840Z,99.90
2022-09-13T19:39:13.475Z,99.90
2022-09-13T19:41:41.510Z,99.90
2022-09-13T19:44:10.464Z,99.90
2022-09-13T19:46:40.098Z,99.90
2022-09-13T19:49:11.907Z,99.90
2022-09-13T19:51:41.468Z,99.90
2022-09-13T19:54:12.173Z,99.90
2022-09-13T19:56:43.075Z,99.90
2022-09-13T19:59:13.065Z,99.90
2022-09-13T20:01:42.759Z,99.90
2022-09-13T20:04:14.907Z,99.90
2022-09-13T20:06:47.771Z,99.90
2022-09-13T20:09:17.153Z,99.90
2022-09-13T20:11:48.860Z,99.90
2022-09-13T20:14:18.253Z,99.90
2022-09-13T20:16:45.897Z,99.90
2022-09-13T20:22:08.625Z,99.90
2022-09-13T20:24:36.123Z,99.90
2022-09-13T20:27:03.133Z,99.90
2022-09-13T20:29:31.820Z,99.90
2022-09-13T20:32:00.471Z,99.90
2022-09-13T20:34:28.289Z,99.90
2022-09-13T20:36:56.147Z,99.90
2022-09-13T20:39:23.818Z,99.90
2022-09-13T20:41:52.123Z,99.90
2022-09-13T20:44:19.617Z,99.90
2022-09-13T20:46:47.129Z,99.90
2022-09-13T20:49:14.504Z,99.90
2022-09-13T20:51:42.126Z,99.90
2022-09-13T20:54:12.661Z,99.90
2022-09-13T20:56:40.534Z,99.90
2022-09-13T20:59:07.790Z,99.90
2022-09-13T21:01:35.385Z,99.90
2022-09-13T21:04:03.774Z,99.90
2022-09-13T21:06:37.812Z,99.90
2022-09-13T21:09:04.910Z,99.90
2022-09-13T21:11:35.202Z,99.90
2022-09-13T21:14:07.541Z,99.90
2022-09-13T21:16:39.343Z,99.90
2022-09-13T21:19:07.178Z,99.90
2022-09-13T21:21:38.502Z,99.90
2022-09-13T21:24:09.879Z,99.90
2022-09-13T21:26:39.788Z,99.90
2022-09-13T21:29:06.825Z,99.90
2022-09-13T21:31:34.092Z,99.90
2022-09-13T21:34:07.074Z,99.90
2022-09-13T21:36:35.208Z,99.90
2022-09-13T21:39:03.638Z,99.90
2022-09-13T21:41:31.416Z,99.90
2022-09-13T21:43:58.797Z,99.90
2022-09-13T21:46:28.096Z,99.90
2022-09-13T21:48:57.767Z,99.90
2022-09-13T21:51:29.731Z,99.90
2022-09-13T21:53:59.320Z,99.90
2022-09-13T21:56:29.090Z,99.90
2022-09-13T21:58:58.899Z,99.90
2022-09-13T22:01:29.059Z,99.90
2022-09-13T22:03:57.403Z,99.90
2022-09-13T22:06:25.227Z,99.90
2022-09-13T22:08:54.586Z,99.90
2022-09-13T22:11:24.753Z,99.90
2022-09-13T22:13:52.149Z,99.90
2022-09-13T22:16:25.458Z,99.90
2022-09-13T22:18:55.007Z,99.90
2022-09-13T22:21:26.149Z,99.90
2022-09-13T22:23:53.642Z,99.90
2022-09-13T22:26:24.533Z,99.90
2022-09-13T22:28:53.581Z,99.90
2022-09-13T22:31:24.143Z,99.90
2022-09-13T22:33:52.889Z,99.90
2022-09-13T22:36:20.143Z,99.90
2022-09-13T22:38:54.659Z,99.90
2022-09-13T22:41:25.299Z,99.90
2022-09-13T22:43:52.815Z,99.90
2022-09-13T22:46:22.798Z,99.90
2022-09-13T22:48:50.069Z,99.90
2022-09-13T22:51:18.568Z,99.90
2022-09-13T22:53:47.669Z,99.90
2022-09-13T22:56:19.299Z,99.90
2022-09-13T22:58:48.415Z,99.90
2022-09-13T23:01:18.653Z,99.90
2022-09-13T23:03:47.303Z,99.90
2022-09-13T23:06:17.287Z,99.90
2022-09-13T23:08:44.884Z,99.90
2022-09-13T23:11:23.003Z,99.90
2022-09-13T23:13:52.365Z,99.90
2022-09-13T23:16:34.919Z,99.90
2022-09-13T23:19:02.041Z,99.90
2022-09-13T23:21:33.778Z,99.90
2022-09-13T23:24:02.819Z,99.90
2022-09-13T23:26:30.163Z,99.90
2022-09-13T23:28:59.901Z,99.90
2022-09-13T23:31:33.038Z,99.90
2022-09-13T23:34:03.064Z,99.90
2022-09-13T23:36:34.710Z,99.90
2022-09-13T23:39:05.820Z,99.90
2022-09-13T23:41:34.405Z,99.90
2022-09-13T23:44:02.961Z,99.90
2022-09-13T23:46:30.010Z,99.90
2022-09-13T23:48:57.513Z,99.90
2022-09-13T23:51:26.771Z,99.90
2022-09-13T23:53:57.263Z,99.90
2022-09-13T23:56:26.760Z,99.90
2022-09-13T23:58:55.616Z,99.90
